Petushki, Russia
Current Conditions -  °F | °C
As of 6:30 AM on Sunday 26 Oct 2014 (Local Time) from UUDD Reporting Station
Clear Clear  
Wind Chill: 11°   Ceiling: Unl
Heat Index: 21°   Visibility: 6mi
Dew Point: 12°   Wind: 9mph
Humidity: 68%   Direction: 230°SW
Pressure: 30.59"   Gusts: NA
Location:  55.93°N, 39.47°E
Report Text: UUDD 260330Z 23004MPS CAVOK M06/M11 Q1036 64150095 14150095NOSIG
Loading
Personal Weather Stations






























Interactive Weather Map
Tropical Storm Tracking
New forecast layout! Learn more

10-Day Weather Forecast

Advertisements
Track Severe Weather on mobile